createdAt,value
2023-01-25T00:00:00.832Z,103642.66
2023-01-25T00:02:27.905Z,103638.31
2023-01-25T00:04:54.785Z,103627.72
2023-01-25T00:07:21.235Z,103617.19
2023-01-25T00:09:47.690Z,103613.72
2023-01-25T00:12:14.262Z,103616.41
2023-01-25T00:14:40.774Z,103610.34
2023-01-25T00:17:07.249Z,103618.28
2023-01-25T00:19:33.878Z,103613.03
2023-01-25T00:22:00.369Z,103600.72
2023-01-25T00:24:27.226Z,103603.38
2023-01-25T00:26:53.754Z,103609.53
2023-01-25T00:29:20.153Z,103592.06
2023-01-25T00:31:49.437Z,103586.72
2023-01-25T00:34:42.205Z,103602.63
2023-01-25T00:37:25.306Z,103606.09
2023-01-25T00:39:52.175Z,103594.72
2023-01-25T00:42:20.148Z,103592.16
2023-01-25T00:44:47.618Z,103594.78
2023-01-25T00:47:15.467Z,103580.88
2023-01-25T00:49:43.096Z,103586.00
2023-01-25T00:52:13.193Z,103593.97
2023-01-25T00:54:40.280Z,103569.66
2023-01-25T00:57:08.244Z,103576.63
2023-01-25T00:59:34.692Z,103580.16
2023-01-25T01:02:01.468Z,103567.06
2023-01-25T01:04:28.044Z,103555.72
2023-01-25T01:06:55.226Z,103563.66
2023-01-25T01:09:23.494Z,103574.13
2023-01-25T01:11:50.214Z,103572.41
2023-01-25T01:14:16.713Z,103558.50
2023-01-25T01:16:43.143Z,103559.53
2023-01-25T01:19:10.764Z,103566.47
2023-01-25T01:21:37.344Z,103564.72
2023-01-25T01:24:04.370Z,103543.84
2023-01-25T01:26:30.781Z,103543.84
2023-01-25T01:28:58.920Z,103558.63
2023-01-25T01:31:25.453Z,103564.72
2023-01-25T01:33:53.910Z,103573.44
2023-01-25T01:36:25.957Z,103568.22
2023-01-25T01:38:52.909Z,103546.44
2023-01-25T01:41:20.047Z,103566.47
2023-01-25T01:43:46.894Z,103567.38
2023-01-25T01:46:34.417Z,103561.19
2023-01-25T01:49:12.352Z,103555.94
2023-01-25T01:51:56.236Z,103547.13
2023-01-25T01:54:35.275Z,103543.66
2023-01-25T01:57:10.528Z,103540.16
2023-01-25T01:59:44.577Z,103537.50
2023-01-25T02:02:11.441Z,103536.63
2023-01-25T02:04:38.031Z,103535.75
2023-01-25T02:07:11.658Z,103541.06
2023-01-25T02:09:38.090Z,103536.69
2023-01-25T02:12:07.480Z,103535.78
2023-01-25T02:14:34.661Z,103534.88
2023-01-25T02:17:01.351Z,103536.63
2023-01-25T02:19:50.158Z,103525.19
2023-01-25T02:22:23.026Z,103526.19
2023-01-25T02:25:10.081Z,103534.06
2023-01-25T02:27:40.748Z,103536.72
2023-01-25T02:30:08.811Z,103530.66
2023-01-25T02:32:35.326Z,103530.72
2023-01-25T02:35:02.019Z,103538.59
2023-01-25T02:37:31.589Z,103528.09
2023-01-25T02:39:58.021Z,103533.34
2023-01-25T02:42:24.630Z,103526.31
2023-01-25T02:44:52.310Z,103520.16
2023-01-25T02:47:18.889Z,103521.03
2023-01-25T02:49:45.301Z,103502.63
2023-01-25T02:52:11.764Z,103507.00
2023-01-25T02:54:38.222Z,103510.53
2023-01-25T02:57:04.770Z,103510.53
2023-01-25T02:59:31.132Z,103500.88
2023-01-25T03:01:57.580Z,103501.78
2023-01-25T03:04:24.701Z,103497.44
2023-01-25T03:06:51.942Z,103498.38
2023-01-25T03:09:18.425Z,103494.88
2023-01-25T03:11:44.995Z,103475.81
2023-01-25T03:14:11.462Z,103497.56
2023-01-25T03:16:38.087Z,103484.47
2023-01-25T03:19:04.581Z,103466.22
2023-01-25T03:21:31.484Z,103487.91
2023-01-25T03:24:01.458Z,103484.41
2023-01-25T03:26:29.246Z,103480.91
2023-01-25T03:28:55.739Z,103472.13
2023-01-25T03:31:22.296Z,103476.50
2023-01-25T03:33:49.714Z,103466.88
2023-01-25T03:36:16.467Z,103465.31
2023-01-25T03:38:43.145Z,103439.00
2023-01-25T03:41:09.958Z,103467.78
2023-01-25T03:43:36.379Z,103473.94
2023-01-25T03:46:03.016Z,103464.25
2023-01-25T03:48:29.708Z,103466.00
2023-01-25T03:50:58.193Z,103460.72
2023-01-25T03:53:29.991Z,103426.72
2023-01-25T03:56:02.440Z,103442.31
2023-01-25T03:58:30.316Z,103438.03
2023-01-25T04:00:59.045Z,103445.91
2023-01-25T04:03:26.184Z,103429.38
2023-01-25T04:05:53.720Z,103426.78
2023-01-25T04:08:20.624Z,103450.38
2023-01-25T04:10:56.233Z,103407.81
2023-01-25T04:13:24.970Z,103446.06
2023-01-25T04:15:52.235Z,103448.75
2023-01-25T04:18:19.421Z,103426.91
2023-01-25T04:20:55.312Z,103432.16
2023-01-25T04:23:22.728Z,103431.28
2023-01-25T04:25:54.181Z,103392.91
2023-01-25T04:28:20.943Z,103425.13
2023-01-25T04:30:47.560Z,103434.88
2023-01-25T04:33:14.612Z,103436.63
2023-01-25T04:35:41.232Z,103428.69
2023-01-25T04:38:07.831Z,103432.22
2023-01-25T04:40:34.287Z,103433.97
2023-01-25T04:43:00.721Z,103429.59
2023-01-25T04:45:27.302Z,103421.72
2023-01-25T04:48:05.792Z,103424.31
2023-01-25T04:50:32.334Z,103419.94
2023-01-25T04:52:58.844Z,103416.44
2023-01-25T04:55:25.262Z,103417.28
2023-01-25T04:57:51.836Z,103398.16
2023-01-25T05:00:19.243Z,103409.44
2023-01-25T05:02:45.771Z,103400.72
2023-01-25T05:05:12.551Z,103399.88
2023-01-25T05:07:39.390Z,103378.88
2023-01-25T05:10:06.794Z,103401.59
2023-01-25T05:12:33.483Z,103395.41
2023-01-25T05:14:59.894Z,103398.91
2023-01-25T05:17:26.436Z,103391.94
2023-01-25T05:19:52.951Z,103377.94
2023-01-25T05:22:20.962Z,103387.47
2023-01-25T05:24:48.144Z,103386.63
2023-01-25T05:27:17.655Z,103377.91
2023-01-25T05:29:45.463Z,103373.44
2023-01-25T05:32:17.937Z,103374.31
2023-01-25T05:34:45.265Z,103377.91
2023-01-25T05:37:14.351Z,103380.47
2023-01-25T05:39:40.941Z,103373.53
2023-01-25T05:42:18.342Z,103365.63
2023-01-25T05:44:47.581Z,103375.28
2023-01-25T05:47:16.351Z,103370.00
2023-01-25T05:49:42.896Z,103365.63
2023-01-25T05:52:14.896Z,103363.06
2023-01-25T05:54:41.375Z,103360.41
2023-01-25T05:57:07.945Z,103353.38
2023-01-25T05:59:34.492Z,103342.16
2023-01-25T06:02:01.161Z,103349.91
2023-01-25T06:04:27.684Z,103349.00
2023-01-25T06:06:54.110Z,103337.66
2023-01-25T06:09:20.462Z,103346.34
2023-01-25T06:11:46.914Z,103341.09
2023-01-25T06:14:13.513Z,103350.75
2023-01-25T06:16:40.145Z,103349.00
2023-01-25T06:19:07.509Z,103338.53
2023-01-25T06:21:37.752Z,103356.03
2023-01-25T06:24:04.673Z,103361.25
2023-01-25T06:26:31.349Z,103347.34
2023-01-25T06:28:57.903Z,103366.63
2023-01-25T06:31:24.466Z,103336.16
2023-01-25T06:33:52.576Z,103344.84
2023-01-25T06:36:20.207Z,103352.69
2023-01-25T06:38:51.088Z,103350.06
2023-01-25T06:41:18.354Z,103358.75
2023-01-25T06:43:45.447Z,103337.91
2023-01-25T06:46:12.611Z,103343.13
2023-01-25T06:48:40.139Z,103364.88
2023-01-25T06:51:08.623Z,103351.72
2023-01-25T06:53:39.474Z,103350.00
2023-01-25T06:56:10.905Z,103359.59
2023-01-25T06:58:38.817Z,103354.31
2023-01-25T07:01:12.456Z,103346.44
2023-01-25T07:03:39.487Z,103348.16
2023-01-25T07:06:07.929Z,103341.97
2023-01-25T07:08:35.137Z,103344.63
2023-01-25T07:11:04.323Z,103334.13
2023-01-25T07:13:32.396Z,103334.84
2023-01-25T07:16:01.556Z,103341.88
2023-01-25T07:18:30.010Z,103337.53
2023-01-25T07:21:13.686Z,103327.94
2023-01-25T07:23:41.637Z,103327.81
2023-01-25T07:26:17.683Z,103331.31
2023-01-25T07:28:45.739Z,103330.41
2023-01-25T07:31:12.518Z,103306.06
2023-01-25T07:33:38.912Z,103319.00
2023-01-25T07:36:07.937Z,103312.88
2023-01-25T07:38:34.905Z,103324.19
2023-01-25T07:41:01.552Z,103317.19
2023-01-25T07:43:29.226Z,103313.75
2023-01-25T07:46:01.866Z,103308.44
2023-01-25T07:48:28.487Z,103310.16
2023-01-25T07:51:20.529Z,103300.56
2023-01-25T07:53:47.503Z,103295.31
2023-01-25T07:56:14.076Z,103305.81
2023-01-25T07:58:40.481Z,103308.47
2023-01-25T08:01:18.302Z,103301.44
2023-01-25T08:03:45.996Z,103297.97
2023-01-25T08:06:12.823Z,103287.38
2023-01-25T08:08:42.280Z,103276.88
2023-01-25T08:11:18.192Z,103272.53
2023-01-25T08:13:47.590Z,103278.59
2023-01-25T08:16:14.811Z,103288.16
2023-01-25T08:18:41.347Z,103289.94
2023-01-25T08:21:08.538Z,103280.31
2023-01-25T08:23:35.350Z,103284.69
2023-01-25T08:26:04.739Z,103280.34
2023-01-25T08:28:31.421Z,103267.09
2023-01-25T08:31:16.583Z,103270.59
2023-01-25T08:33:44.468Z,103264.44
2023-01-25T08:36:11.073Z,103231.44
2023-01-25T08:38:41.986Z,103260.00
2023-01-25T08:41:15.782Z,103258.19
2023-01-25T08:43:44.475Z,103254.66
2023-01-25T08:46:11.267Z,103252.06
2023-01-25T08:48:37.818Z,103237.16
2023-01-25T08:51:04.460Z,103228.41
2023-01-25T08:53:31.993Z,103220.47
2023-01-25T08:56:12.159Z,103223.06
2023-01-25T08:58:39.739Z,103219.44
2023-01-25T09:01:08.760Z,103231.78
2023-01-25T09:03:36.740Z,103202.22
2023-01-25T09:06:03.309Z,103223.84
2023-01-25T09:08:29.868Z,103227.31
2023-01-25T09:11:01.433Z,103228.19
2023-01-25T09:13:28.193Z,103217.56
2023-01-25T09:16:06.708Z,103212.25
2023-01-25T09:18:35.448Z,103213.97
2023-01-25T09:21:10.324Z,103206.09
2023-01-25T09:23:50.481Z,103207.88
2023-01-25T09:26:18.952Z,103214.81
2023-01-25T09:28:50.787Z,103208.72
2023-01-25T09:31:22.033Z,103207.78
2023-01-25T09:33:50.370Z,103207.84
2023-01-25T09:36:17.073Z,103199.97
2023-01-25T09:38:43.602Z,103200.88
2023-01-25T09:41:21.888Z,103200.84
2023-01-25T09:44:25.299Z,103192.00
2023-01-25T09:46:56.078Z,103170.38
2023-01-25T09:49:31.635Z,103184.13
2023-01-25T09:51:58.226Z,103186.72
2023-01-25T09:54:28.502Z,103176.19
2023-01-25T09:56:57.348Z,103173.53
2023-01-25T09:59:28.512Z,103170.88
2023-01-25T10:02:05.746Z,103172.53
2023-01-25T10:04:40.181Z,103174.22
2023-01-25T10:07:18.644Z,103171.50
2023-01-25T10:09:53.310Z,103160.06
2023-01-25T10:12:23.767Z,103167.94
2023-01-25T10:14:51.542Z,103174.03
2023-01-25T10:17:40.406Z,103163.41
2023-01-25T10:20:25.330Z,103142.50
2023-01-25T10:23:08.381Z,103159.03
2023-01-25T10:25:41.466Z,103151.06
2023-01-25T10:28:24.640Z,103147.56
2023-01-25T10:31:02.563Z,103144.91
2023-01-25T10:33:34.854Z,103133.53
2023-01-25T10:36:04.545Z,103133.59
2023-01-25T10:38:45.370Z,103126.53
2023-01-25T10:41:30.537Z,103130.88
2023-01-25T10:44:15.801Z,103126.50
2023-01-25T10:46:49.285Z,103118.59
2023-01-25T10:49:22.030Z,103109.84
2023-01-25T10:51:48.499Z,103092.59
2023-01-25T10:54:16.580Z,103117.75
2023-01-25T10:56:46.080Z,103116.94
2023-01-25T10:59:23.609Z,103108.91
2023-01-25T11:01:50.084Z,103099.28
2023-01-25T11:04:35.185Z,103086.13
2023-01-25T11:07:06.001Z,103077.63
2023-01-25T11:09:34.045Z,103073.16
2023-01-25T11:12:03.289Z,103078.59
2023-01-25T11:14:32.167Z,103062.09
2023-01-25T11:17:01.701Z,103056.84
2023-01-25T11:19:32.776Z,103047.97
2023-01-25T11:22:01.213Z,103049.88
2023-01-25T11:24:33.449Z,103040.25
2023-01-25T11:27:18.730Z,103038.44
2023-01-25T11:29:47.126Z,103031.50
2023-01-25T11:32:21.541Z,103030.75
2023-01-25T11:34:50.159Z,103017.53
2023-01-25T11:37:32.336Z,103020.09
2023-01-25T11:40:13.120Z,102995.75
2023-01-25T11:43:06.194Z,103010.31
2023-01-25T11:45:55.373Z,103002.34
2023-01-25T11:48:32.989Z,103004.13
2023-01-25T11:51:07.110Z,102962.28
2023-01-25T11:54:05.855Z,102953.44
2023-01-25T11:56:57.207Z,102965.41
2023-01-25T11:59:35.572Z,102974.03
2023-01-25T12:02:02.711Z,102972.31
2023-01-25T12:04:47.320Z,102960.84
2023-01-25T12:07:37.163Z,102948.69
2023-01-25T12:10:14.455Z,102946.88
2023-01-25T12:13:11.338Z,102943.28
2023-01-25T12:16:02.217Z,102944.13
2023-01-25T12:18:37.733Z,102931.88
2023-01-25T12:21:31.468Z,102918.75
2023-01-25T12:24:25.811Z,102918.59
2023-01-25T12:26:52.290Z,102909.84
2023-01-25T12:29:18.740Z,102906.28
2023-01-25T12:32:05.144Z,102902.66
2023-01-25T12:34:41.376Z,102895.75
2023-01-25T12:37:32.751Z,102886.00
2023-01-25T12:40:04.841Z,102879.03
2023-01-25T12:42:44.440Z,102878.25
2023-01-25T12:45:25.225Z,102835.72
2023-01-25T12:48:13.122Z,102871.63
2023-01-25T12:50:49.614Z,102866.28
2023-01-25T12:53:52.427Z,102868.06
2023-01-25T12:57:09.752Z,102858.41
2023-01-25T13:00:19.617Z,102848.81
2023-01-25T13:03:06.839Z,102846.06
2023-01-25T13:05:51.877Z,102836.47
2023-01-25T13:08:34.524Z,102838.19
2023-01-25T13:11:31.912Z,102837.22
2023-01-25T13:14:16.707Z,102824.94
2023-01-25T13:17:10.372Z,102819.66
2023-01-25T13:19:37.499Z,102817.81
2023-01-25T13:22:04.908Z,102816.06
2023-01-25T13:24:55.317Z,102803.03
2023-01-25T13:27:27.254Z,102809.78
2023-01-25T13:29:59.369Z,102805.41
2023-01-25T13:32:25.808Z,102800.09
2023-01-25T13:34:52.205Z,102793.19
2023-01-25T13:37:21.628Z,102787.00
2023-01-25T13:40:07.767Z,102786.31
2023-01-25T13:42:38.576Z,102782.75
2023-01-25T13:45:15.725Z,102748.09
2023-01-25T13:47:44.117Z,102767.78
2023-01-25T13:50:25.863Z,102763.38
2023-01-25T13:53:03.745Z,102762.69
2023-01-25T13:55:39.681Z,102776.91
2023-01-25T13:58:22.336Z,102769.97
2023-01-25T14:01:08.585Z,102772.56
2023-01-25T14:03:51.143Z,102768.28
2023-01-25T14:06:22.207Z,102764.00
2023-01-25T14:08:49.860Z,102761.47
2023-01-25T14:11:22.451Z,102754.59
2023-01-25T14:14:02.489Z,102770.25
2023-01-25T14:16:31.052Z,102764.97
2023-01-25T14:19:18.507Z,102761.69
2023-01-25T14:21:44.909Z,102752.06
2023-01-25T14:24:11.884Z,102765.88
2023-01-25T14:26:41.946Z,102751.09
2023-01-25T14:29:35.393Z,102716.25
2023-01-25T14:32:03.042Z,102707.59
2023-01-25T14:34:29.541Z,102707.44
2023-01-25T14:37:18.566Z,102737.66
2023-01-25T14:39:46.131Z,102727.13
2023-01-25T14:42:12.998Z,102728.06
2023-01-25T14:44:40.096Z,102737.59
2023-01-25T14:47:30.068Z,102727.84
2023-01-25T14:50:35.572Z,102720.75
2023-01-25T14:53:23.611Z,102717.25
2023-01-25T14:55:51.125Z,102720.78
2023-01-25T14:58:20.970Z,102706.94
2023-01-25T15:01:02.238Z,102712.16
2023-01-25T15:03:30.797Z,102729.56
2023-01-25T15:06:02.942Z,102722.59
2023-01-25T15:08:37.162Z,102712.28
2023-01-25T15:11:22.464Z,102688.88
2023-01-25T15:13:49.016Z,102717.47
2023-01-25T15:16:16.460Z,102722.69
2023-01-25T15:18:43.174Z,102716.66
2023-01-25T15:21:17.215Z,102718.44
2023-01-25T15:23:45.974Z,102721.09
2023-01-25T15:26:25.892Z,102703.75
2023-01-25T15:28:55.675Z,102713.09
2023-01-25T15:31:26.334Z,102701.97
2023-01-25T15:33:53.334Z,102713.22
2023-01-25T15:36:20.286Z,102702.66
2023-01-25T15:38:46.824Z,102695.72
2023-01-25T15:41:14.197Z,102688.66
2023-01-25T15:43:41.304Z,102679.94
2023-01-25T15:46:16.980Z,102678.16
2023-01-25T15:48:45.342Z,102680.09
2023-01-25T15:51:12.996Z,102656.59
2023-01-25T15:53:40.155Z,102668.03
2023-01-25T15:56:13.007Z,102664.41
2023-01-25T15:58:41.735Z,102659.25
2023-01-25T16:01:08.758Z,102663.53
2023-01-25T16:03:35.716Z,102673.16
2023-01-25T16:06:16.897Z,102644.50
2023-01-25T16:08:43.500Z,102650.44
2023-01-25T16:11:10.067Z,102659.03
2023-01-25T16:13:36.855Z,102644.13
2023-01-25T16:16:03.606Z,102636.56
2023-01-25T16:18:30.176Z,102655.72
2023-01-25T16:20:56.603Z,102660.94
2023-01-25T16:23:22.996Z,102662.75
2023-01-25T16:25:49.463Z,102649.78
2023-01-25T16:28:16.257Z,102650.72
2023-01-25T16:30:45.031Z,102651.63
2023-01-25T16:33:11.858Z,102653.53
2023-01-25T16:35:38.533Z,102648.44
2023-01-25T16:38:05.123Z,102619.13
2023-01-25T16:40:39.719Z,102625.13
2023-01-25T16:43:06.482Z,102644.16
2023-01-25T16:45:33.044Z,102649.38
2023-01-25T16:48:00.015Z,102613.00
2023-01-25T16:50:26.530Z,102631.97
2023-01-25T16:52:54.733Z,102632.84
2023-01-25T16:55:21.162Z,102640.69
2023-01-25T16:57:51.321Z,102635.41
2023-01-25T17:00:17.894Z,102643.03
2023-01-25T17:02:58.199Z,102631.91
2023-01-25T17:05:29.219Z,102627.56
2023-01-25T17:07:55.955Z,102623.06
2023-01-25T17:10:23.560Z,102628.34
2023-01-25T17:12:50.564Z,102638.88
2023-01-25T17:15:19.866Z,102631.00
2023-01-25T17:17:46.558Z,102619.69
2023-01-25T17:20:13.103Z,102618.81
2023-01-25T17:22:40.508Z,102617.34
2023-01-25T17:25:07.317Z,102625.03
2023-01-25T17:27:33.749Z,102625.03
2023-01-25T17:30:00.184Z,102614.75
2023-01-25T17:32:26.628Z,102593.22
2023-01-25T17:34:53.770Z,102616.63
2023-01-25T17:37:20.335Z,102590.59
2023-01-25T17:39:47.635Z,102592.28
2023-01-25T17:42:14.587Z,102599.19
2023-01-25T17:44:41.201Z,102602.59
2023-01-25T17:47:07.596Z,102597.41
2023-01-25T17:49:34.148Z,102552.34
2023-01-25T17:52:02.232Z,102566.06
2023-01-25T17:54:28.851Z,102576.25
2023-01-25T17:56:55.535Z,102559.72
2023-01-25T17:59:22.052Z,102569.22
2023-01-25T18:01:48.607Z,102570.03
2023-01-25T18:04:18.098Z,102553.66
2023-01-25T18:06:44.766Z,102563.16
2023-01-25T18:09:11.257Z,102565.94
2023-01-25T18:11:40.795Z,102565.00
2023-01-25T18:14:12.803Z,102545.03
2023-01-25T18:16:40.729Z,102566.75
2023-01-25T18:19:07.975Z,102547.59
2023-01-25T18:21:35.006Z,102541.50
2023-01-25T18:24:23.428Z,102536.09
2023-01-25T18:26:50.858Z,102530.19
2023-01-25T18:29:17.265Z,102530.28
2023-01-25T18:31:44.230Z,102525.19
2023-01-25T18:34:10.716Z,102524.50
2023-01-25T18:36:37.266Z,102532.31
2023-01-25T18:39:06.770Z,102529.66
2023-01-25T18:41:33.267Z,102511.44
2023-01-25T18:43:59.923Z,102468.16
2023-01-25T18:46:26.321Z,102487.09
2023-01-25T18:48:52.726Z,102521.00
2023-01-25T18:51:19.254Z,102509.63
2023-01-25T18:53:49.122Z,102498.28
2023-01-25T18:56:21.208Z,102492.94
2023-01-25T18:58:48.576Z,102484.19
2023-01-25T19:01:21.111Z,102480.63
2023-01-25T19:03:49.599Z,102484.94
2023-01-25T19:06:16.942Z,102488.47
2023-01-25T19:08:46.334Z,102481.47
2023-01-25T19:11:15.972Z,102456.47
2023-01-25T19:13:44.132Z,102468.44
2023-01-25T19:16:24.529Z,102470.09
2023-01-25T19:18:53.615Z,102477.13
2023-01-25T19:21:22.820Z,102481.47
2023-01-25T19:23:50.046Z,102477.97
2023-01-25T19:26:19.101Z,102471.91
2023-01-25T19:28:46.969Z,102464.16
2023-01-25T19:31:24.770Z,102455.41
2023-01-25T19:33:56.176Z,102448.38
2023-01-25T19:36:23.175Z,102452.78
2023-01-25T19:38:49.899Z,102432.69
2023-01-25T19:41:21.440Z,102429.25
2023-01-25T19:43:52.106Z,102425.63
2023-01-25T19:46:20.763Z,102429.97
2023-01-25T19:48:50.051Z,102427.38
2023-01-25T19:51:22.532Z,102417.66
2023-01-25T19:54:15.187Z,102418.38
2023-01-25T19:56:43.125Z,102424.59
2023-01-25T19:59:15.453Z,102424.50
2023-01-25T20:01:43.889Z,102422.06
2023-01-25T20:04:17.412Z,102416.94
2023-01-25T20:06:43.826Z,102411.56
2023-01-25T20:09:12.898Z,102407.06
2023-01-25T20:11:40.733Z,102388.09
2023-01-25T20:14:08.006Z,102395.72
2023-01-25T20:16:35.343Z,102399.41
2023-01-25T20:19:03.005Z,102397.44
2023-01-25T20:21:31.065Z,102393.00
2023-01-25T20:24:02.337Z,102377.38
2023-01-25T20:26:34.797Z,102392.06
2023-01-25T20:29:01.301Z,102382.44
2023-01-25T20:31:33.752Z,102377.97
2023-01-25T20:34:03.676Z,102377.97
2023-01-25T20:36:31.569Z,102390.25
2023-01-25T20:38:58.133Z,102388.63
2023-01-25T20:41:25.019Z,102392.88
2023-01-25T20:44:06.961Z,102386.94
2023-01-25T20:46:34.663Z,102347.78
2023-01-25T20:49:03.230Z,102391.91
2023-01-25T20:51:29.954Z,102399.69
2023-01-25T20:53:56.964Z,102384.19
2023-01-25T20:56:23.860Z,102405.75
2023-01-25T20:58:51.367Z,102384.97
2023-01-25T21:01:28.237Z,102389.00
2023-01-25T21:03:56.863Z,102386.41
2023-01-25T21:06:24.958Z,102376.81
2023-01-25T21:08:51.455Z,102381.97
2023-01-25T21:11:18.038Z,102381.03
2023-01-25T21:13:44.498Z,102387.13
2023-01-25T21:16:15.118Z,102385.34
2023-01-25T21:18:52.702Z,102373.22
2023-01-25T21:21:21.876Z,102367.94
2023-01-25T21:23:50.483Z,102354.13
2023-01-25T21:26:20.264Z,102374.88
2023-01-25T21:28:47.826Z,102365.38
2023-01-25T21:31:20.174Z,102370.53
2023-01-25T21:33:47.521Z,102373.16
2023-01-25T21:36:15.830Z,102366.16
2023-01-25T21:38:44.044Z,102343.84
2023-01-25T21:41:13.096Z,102359.25
2023-01-25T21:43:58.309Z,102357.47
2023-01-25T21:46:26.963Z,102340.16
2023-01-25T21:49:12.527Z,102348.78
2023-01-25T21:51:46.976Z,102317.72
2023-01-25T21:54:21.679Z,102336.75
2023-01-25T21:56:50.141Z,102343.81
2023-01-25T21:59:17.059Z,102333.25
2023-01-25T22:01:44.245Z,102335.06
2023-01-25T22:04:12.143Z,102328.03
2023-01-25T22:06:38.907Z,102332.44
2023-01-25T22:09:06.157Z,102322.03
2023-01-25T22:11:32.958Z,102323.69
2023-01-25T22:14:00.983Z,102314.97
2023-01-25T22:16:29.297Z,102312.22
2023-01-25T22:18:56.459Z,102315.84
2023-01-25T22:21:25.635Z,102320.16
2023-01-25T22:23:52.747Z,102323.56
2023-01-25T22:26:21.307Z,102317.59
2023-01-25T22:28:56.162Z,102315.84
2023-01-25T22:31:24.872Z,102316.56
2023-01-25T22:33:53.024Z,102311.31
2023-01-25T22:36:21.765Z,102321.97
2023-01-25T22:38:48.655Z,102311.41
2023-01-25T22:41:24.666Z,102317.31
2023-01-25T22:43:52.931Z,102311.31
2023-01-25T22:46:21.479Z,102317.28
2023-01-25T22:48:48.447Z,102317.25
2023-01-25T22:51:26.692Z,102321.56
2023-01-25T22:53:54.328Z,102306.06
2023-01-25T22:56:24.132Z,102313.56
2023-01-25T22:58:51.560Z,102298.91
2023-01-25T23:01:23.863Z,102309.22
2023-01-25T23:03:51.241Z,102311.03
2023-01-25T23:06:26.570Z,102315.31
2023-01-25T23:08:59.737Z,102309.13
2023-01-25T23:11:32.181Z,102289.19
2023-01-25T23:14:17.941Z,102297.72
2023-01-25T23:16:44.606Z,102302.06
2023-01-25T23:19:11.267Z,102297.63
2023-01-25T23:21:37.854Z,102280.13
2023-01-25T23:24:04.632Z,102283.53
2023-01-25T23:26:37.554Z,102264.56
2023-01-25T23:29:06.815Z,102277.28
2023-01-25T23:31:33.365Z,102269.41
2023-01-25T23:34:02.228Z,102262.63
2023-01-25T23:36:38.774Z,102260.84
2023-01-25T23:39:05.340Z,102258.41
2023-01-25T23:41:32.220Z,102235.03
2023-01-25T23:43:59.620Z,102260.91
2023-01-25T23:46:27.452Z,102230.03
2023-01-25T23:48:54.042Z,102246.22
2023-01-25T23:51:20.472Z,102253.09
2023-01-25T23:53:47.381Z,102244.34
2023-01-25T23:56:16.906Z,102248.66
2023-01-25T23:58:44.338Z,102249.63
